createdAt,value
2022-10-25T00:00:51.401Z,14.30
2022-10-25T00:03:19.686Z,14.30
2022-10-25T00:05:47.972Z,14.20
2022-10-25T00:08:16.207Z,14.20
2022-10-25T00:10:44.384Z,14.30
2022-10-25T00:13:14.000Z,14.30
2022-10-25T00:15:42.200Z,14.30
2022-10-25T00:18:10.480Z,14.30
2022-10-25T00:20:38.699Z,14.20
2022-10-25T00:23:07.004Z,14.20
2022-10-25T00:25:35.241Z,14.20
2022-10-25T00:28:03.455Z,14.10
2022-10-25T00:30:33.679Z,14.20
2022-10-25T00:33:01.884Z,14.20
2022-10-25T00:35:30.168Z,14.20
2022-10-25T00:37:58.470Z,14.20
2022-10-25T00:40:26.688Z,14.20
2022-10-25T00:42:54.850Z,14.30
2022-10-25T00:45:25.809Z,14.20
2022-10-25T00:48:00.674Z,14.20
2022-10-25T00:50:37.680Z,14.20
2022-10-25T00:53:10.468Z,14.20
2022-10-25T00:55:43.178Z,14.20
2022-10-25T00:58:15.608Z,14.10
2022-10-25T01:00:46.246Z,14.10
2022-10-25T01:03:17.532Z,14.00
2022-10-25T01:05:46.713Z,14.10
2022-10-25T01:08:16.348Z,14.00
2022-10-25T01:10:44.961Z,14.00
2022-10-25T01:13:13.304Z,14.00
2022-10-25T01:15:51.420Z,14.00
2022-10-25T01:18:28.239Z,14.00
2022-10-25T01:21:32.265Z,13.90
2022-10-25T01:24:39.693Z,13.90
2022-10-25T01:27:23.505Z,13.90
2022-10-25T01:30:04.656Z,14.00
2022-10-25T01:32:42.034Z,14.00
2022-10-25T01:35:18.088Z,14.00
2022-10-25T01:37:56.364Z,14.00
2022-10-25T01:40:29.444Z,14.00
2022-10-25T01:43:04.243Z,14.00
2022-10-25T01:45:38.300Z,14.00
2022-10-25T01:48:13.247Z,14.00
2022-10-25T01:50:44.777Z,14.00
2022-10-25T01:53:13.020Z,14.10
2022-10-25T01:55:50.043Z,14.00
2022-10-25T01:58:28.699Z,14.20
2022-10-25T02:01:08.399Z,14.30
2022-10-25T02:03:43.639Z,14.40
2022-10-25T02:06:25.951Z,14.50
2022-10-25T02:09:01.824Z,14.60
2022-10-25T02:11:31.727Z,14.60
2022-10-25T02:14:08.071Z,14.70
2022-10-25T02:16:41.531Z,14.70
2022-10-25T02:19:16.116Z,14.70
2022-10-25T02:21:46.269Z,14.70
2022-10-25T02:24:18.327Z,14.70
2022-10-25T02:29:24.945Z,14.90
2022-10-25T02:31:53.267Z,14.90
2022-10-25T02:34:22.999Z,14.90
2022-10-25T02:36:51.569Z,15.00
2022-10-25T02:39:20.727Z,15.00
2022-10-25T02:41:48.959Z,15.10
2022-10-25T02:44:17.181Z,15.10
2022-10-25T02:46:45.414Z,15.20
2022-10-25T02:49:13.849Z,15.20
2022-10-25T02:51:43.499Z,15.20
2022-10-25T02:54:11.787Z,15.20
2022-10-25T02:56:40.112Z,15.30
2022-10-25T02:59:08.308Z,15.20
2022-10-25T03:01:36.597Z,15.20
2022-10-25T03:04:05.059Z,15.20
2022-10-25T03:06:33.272Z,15.20
2022-10-25T03:09:02.952Z,15.20
2022-10-25T03:11:31.244Z,15.20
2022-10-25T03:13:59.456Z,15.30
2022-10-25T03:16:27.770Z,15.30
2022-10-25T03:18:58.093Z,15.30
2022-10-25T03:21:26.588Z,15.20
2022-10-25T03:23:54.826Z,15.20
2022-10-25T03:26:24.716Z,15.20
2022-10-25T03:28:53.007Z,15.10
2022-10-25T03:31:21.541Z,15.10
2022-10-25T03:33:51.181Z,15.20
2022-10-25T03:36:19.761Z,15.10
2022-10-25T03:38:47.932Z,15.10
2022-10-25T03:41:16.093Z,15.10
2022-10-25T03:43:45.608Z,15.00
2022-10-25T03:46:13.790Z,15.00
2022-10-25T03:48:42.069Z,14.90
2022-10-25T03:51:10.269Z,15.00
2022-10-25T03:53:38.508Z,15.00
2022-10-25T03:56:07.492Z,15.00
2022-10-25T03:58:35.709Z,15.00
2022-10-25T04:01:08.917Z,15.10
2022-10-25T04:03:37.592Z,15.00
2022-10-25T04:06:06.100Z,15.00
2022-10-25T04:08:34.240Z,15.00
2022-10-25T04:11:02.468Z,15.00
2022-10-25T04:13:30.680Z,15.00
2022-10-25T04:15:59.010Z,15.10
2022-10-25T04:18:28.619Z,15.00
2022-10-25T04:20:58.841Z,15.00
2022-10-25T04:23:27.045Z,14.90
2022-10-25T04:25:56.697Z,14.90
2022-10-25T04:28:25.441Z,14.80
2022-10-25T04:30:53.644Z,14.80
2022-10-25T04:33:21.771Z,14.80
2022-10-25T04:35:56.807Z,14.70
2022-10-25T04:38:25.275Z,14.60
2022-10-25T04:40:57.339Z,14.60
2022-10-25T04:43:26.445Z,14.50
2022-10-25T04:45:55.420Z,14.40
2022-10-25T04:48:23.685Z,14.30
2022-10-25T04:50:51.925Z,14.20
2022-10-25T04:53:21.453Z,14.20
2022-10-25T04:55:57.393Z,14.10
2022-10-25T04:58:30.368Z,14.00
2022-10-25T05:01:01.565Z,14.00
2022-10-25T05:03:30.085Z,13.90
2022-10-25T05:06:06.927Z,13.90
2022-10-25T05:08:36.735Z,13.80
2022-10-25T05:11:05.125Z,13.80
2022-10-25T05:13:34.231Z,13.80
2022-10-25T05:16:02.665Z,13.80
2022-10-25T05:18:32.224Z,13.80
2022-10-25T05:21:02.024Z,13.90
2022-10-25T05:23:30.235Z,13.90
2022-10-25T05:26:04.767Z,13.90
2022-10-25T05:28:33.803Z,13.90
2022-10-25T05:31:04.621Z,13.90
2022-10-25T05:33:33.700Z,14.00
2022-10-25T05:36:02.260Z,14.10
2022-10-25T05:38:34.230Z,14.20
2022-10-25T05:41:06.835Z,14.20
2022-10-25T05:43:35.545Z,14.30
2022-10-25T05:46:06.520Z,14.40
2022-10-25T05:48:36.112Z,14.40
2022-10-25T05:51:32.426Z,14.40
2022-10-25T05:54:01.900Z,14.50
2022-10-25T05:56:32.592Z,14.60
2022-10-25T05:59:06.839Z,14.70
2022-10-25T06:01:35.604Z,14.70
2022-10-25T06:04:04.007Z,14.70
2022-10-25T06:06:32.398Z,14.70
2022-10-25T06:09:02.005Z,14.80
2022-10-25T06:11:32.035Z,14.90
2022-10-25T06:14:00.403Z,14.90
2022-10-25T06:16:28.921Z,14.90
2022-10-25T06:18:57.498Z,15.00
2022-10-25T06:21:28.338Z,14.90
2022-10-25T06:23:57.443Z,15.00
2022-10-25T06:26:28.986Z,15.00
2022-10-25T06:29:00.161Z,15.10
2022-10-25T06:31:29.693Z,15.10
2022-10-25T06:33:59.289Z,15.10
2022-10-25T06:36:27.924Z,15.10
2022-10-25T06:38:56.187Z,15.20
2022-10-25T06:41:27.736Z,15.10
2022-10-25T06:44:03.808Z,15.20
2022-10-25T06:46:57.970Z,15.20
2022-10-25T06:49:25.591Z,15.20
2022-10-25T06:51:53.915Z,15.30
2022-10-25T06:54:22.274Z,15.20
2022-10-25T06:56:51.101Z,15.30
2022-10-25T06:59:20.786Z,15.30
2022-10-25T07:01:50.030Z,15.20
2022-10-25T07:04:18.491Z,15.30
2022-10-25T07:06:49.979Z,15.30
2022-10-25T07:09:21.238Z,15.40
2022-10-25T07:11:49.469Z,15.40
2022-10-25T07:14:17.930Z,15.40
2022-10-25T07:16:47.590Z,15.50
2022-10-25T07:19:15.795Z,15.60
2022-10-25T07:21:45.139Z,15.70
2022-10-25T07:24:13.612Z,15.80
2022-10-25T07:26:42.054Z,15.90
2022-10-25T07:29:10.888Z,16.10
2022-10-25T07:31:43.182Z,16.10
2022-10-25T07:34:14.504Z,16.10
2022-10-25T07:36:42.877Z,16.20
2022-10-25T07:39:11.233Z,16.20
2022-10-25T07:41:39.461Z,16.10
2022-10-25T07:44:11.737Z,16.20
2022-10-25T07:46:43.849Z,16.20
2022-10-25T07:49:14.365Z,16.30
2022-10-25T07:51:46.647Z,16.30
2022-10-25T07:54:16.292Z,16.30
2022-10-25T07:56:44.536Z,16.30
2022-10-25T07:59:12.901Z,16.40
2022-10-25T08:01:41.118Z,16.30
2022-10-25T08:04:09.351Z,16.40
2022-10-25T08:06:38.929Z,16.50
2022-10-25T08:09:14.962Z,16.50
2022-10-25T08:11:48.682Z,16.40
2022-10-25T08:14:17.185Z,16.50
2022-10-25T08:16:45.498Z,16.60
2022-10-25T08:19:13.760Z,16.70
2022-10-25T08:21:43.357Z,16.70
2022-10-25T08:24:11.901Z,16.90
2022-10-25T08:26:40.184Z,17.10
2022-10-25T08:29:08.493Z,17.10
2022-10-25T08:31:37.212Z,17.20
2022-10-25T08:34:05.565Z,17.20
2022-10-25T08:36:33.939Z,17.20
2022-10-25T08:39:03.553Z,17.20
2022-10-25T08:41:44.047Z,17.30
2022-10-25T08:44:30.111Z,17.20
2022-10-25T08:47:02.447Z,17.20
2022-10-25T08:49:39.057Z,17.20
2022-10-25T08:52:17.368Z,17.10
2022-10-25T08:54:47.435Z,17.10
2022-10-25T08:57:22.694Z,17.10
2022-10-25T08:59:54.876Z,17.20
2022-10-25T09:02:33.667Z,17.20
2022-10-25T09:05:02.169Z,17.10
2022-10-25T09:07:57.179Z,17.00
2022-10-25T09:10:36.998Z,16.80
2022-10-25T09:13:15.034Z,16.70
2022-10-25T09:15:54.811Z,16.70
2022-10-25T09:18:32.172Z,16.60
2022-10-25T09:21:02.983Z,16.60
2022-10-25T09:23:32.986Z,16.60
2022-10-25T09:26:09.350Z,16.50
2022-10-25T09:28:51.333Z,16.40
2022-10-25T09:31:24.015Z,16.40
2022-10-25T09:34:01.552Z,16.40
2022-10-25T09:36:37.018Z,16.40
2022-10-25T09:39:15.735Z,16.50
2022-10-25T09:41:50.771Z,16.50
2022-10-25T09:44:30.359Z,16.50
2022-10-25T09:47:02.953Z,16.60
2022-10-25T09:49:38.261Z,16.50
2022-10-25T09:52:13.356Z,16.60
2022-10-25T09:54:46.788Z,16.60
2022-10-25T09:57:16.517Z,16.60
2022-10-25T09:59:47.580Z,16.60
2022-10-25T10:02:23.587Z,16.70
2022-10-25T10:04:52.559Z,16.70
2022-10-25T10:07:25.315Z,16.70
2022-10-25T10:09:56.601Z,16.80
2022-10-25T10:12:29.750Z,17.10
2022-10-25T10:15:02.130Z,17.40
2022-10-25T10:17:31.973Z,17.80
2022-10-25T10:20:12.751Z,18.10
2022-10-25T10:25:21.033Z,18.70
2022-10-25T10:27:53.127Z,18.60
2022-10-25T10:30:24.947Z,18.50
2022-10-25T10:33:00.128Z,18.50
2022-10-25T10:35:33.526Z,18.60
2022-10-25T10:38:24.771Z,18.60
2022-10-25T10:40:55.853Z,18.60
2022-10-25T10:43:29.600Z,18.70
2022-10-25T10:46:03.830Z,18.80
2022-10-25T10:48:42.149Z,19.00
2022-10-25T10:51:38.785Z,19.00
2022-10-25T10:54:23.426Z,19.00
2022-10-25T10:57:00.241Z,19.00
2022-10-25T10:59:36.063Z,18.80
2022-10-25T11:02:22.995Z,18.70
2022-10-25T11:04:53.148Z,18.40
2022-10-25T11:07:31.127Z,18.30
2022-10-25T11:10:24.559Z,18.20
2022-10-25T11:13:10.470Z,18.00
2022-10-25T11:16:02.211Z,17.90
2022-10-25T11:18:40.878Z,17.90
2022-10-25T11:21:17.129Z,18.00
2022-10-25T11:23:59.369Z,18.20
2022-10-25T11:26:37.700Z,18.50
2022-10-25T11:29:15.717Z,18.80
2022-10-25T11:31:56.221Z,19.00
2022-10-25T11:34:31.464Z,19.20
2022-10-25T11:37:18.025Z,19.30
2022-10-25T11:39:56.039Z,19.40
2022-10-25T11:42:40.523Z,19.50
2022-10-25T11:45:46.916Z,19.50
2022-10-25T11:48:46.876Z,19.60
2022-10-25T11:51:27.619Z,19.70
2022-10-25T11:54:08.308Z,19.70
2022-10-25T11:56:47.700Z,20.00
2022-10-25T11:59:21.202Z,20.00
2022-10-25T12:02:03.955Z,20.00
2022-10-25T12:04:45.930Z,20.10
2022-10-25T12:07:20.307Z,20.30
2022-10-25T12:09:59.534Z,20.30
2022-10-25T12:12:36.201Z,20.30
2022-10-25T12:15:06.704Z,20.30
2022-10-25T12:17:36.525Z,20.40
2022-10-25T12:20:13.903Z,20.40
2022-10-25T12:22:46.494Z,20.40
2022-10-25T12:25:20.965Z,20.40
2022-10-25T12:27:56.577Z,20.50
2022-10-25T12:33:01.023Z,20.20
2022-10-25T12:35:34.949Z,20.30
2022-10-25T12:38:09.196Z,20.40
2022-10-25T12:40:41.875Z,20.50
2022-10-25T12:43:18.157Z,20.60
2022-10-25T12:46:01.763Z,20.70
2022-10-25T12:49:04.325Z,20.80
2022-10-25T12:51:49.289Z,20.80
2022-10-25T12:54:40.429Z,20.70
2022-10-25T12:57:19.763Z,20.90
2022-10-25T13:00:04.191Z,20.90
2022-10-25T13:02:56.821Z,20.80
2022-10-25T13:05:49.089Z,20.70
2022-10-25T13:08:22.945Z,20.90
2022-10-25T13:10:58.903Z,20.90
2022-10-25T13:13:29.708Z,20.90
2022-10-25T13:16:00.224Z,20.70
2022-10-25T13:18:40.185Z,20.60
2022-10-25T13:21:09.961Z,20.40
2022-10-25T13:23:59.694Z,20.10
2022-10-25T13:26:34.286Z,19.90
2022-10-25T13:29:04.915Z,19.90
2022-10-25T13:31:58.168Z,19.80
2022-10-25T13:34:36.773Z,19.60
2022-10-25T13:37:52.152Z,19.60
2022-10-25T13:40:30.829Z,19.80
2022-10-25T13:43:02.687Z,19.80
2022-10-25T13:45:42.858Z,19.80
2022-10-25T13:48:20.602Z,19.70
2022-10-25T13:50:53.681Z,19.50
2022-10-25T13:53:24.505Z,19.30
2022-10-25T13:56:04.048Z,19.20
2022-10-25T13:58:47.193Z,19.20
2022-10-25T14:01:57.643Z,19.10
2022-10-25T14:04:40.068Z,18.90
2022-10-25T14:07:48.610Z,18.90
2022-10-25T14:10:36.266Z,18.80
2022-10-25T14:13:22.531Z,18.70
2022-10-25T14:15:58.106Z,18.50
2022-10-25T14:18:27.901Z,18.50
2022-10-25T14:20:59.890Z,18.50
2022-10-25T14:23:33.347Z,18.40
2022-10-25T14:26:03.253Z,18.40
2022-10-25T14:28:35.755Z,18.30
2022-10-25T14:31:05.825Z,18.30
2022-10-25T14:33:39.300Z,18.40
2022-10-25T14:36:12.386Z,18.30
2022-10-25T14:38:52.212Z,18.30
2022-10-25T14:41:25.825Z,18.30
2022-10-25T14:43:55.854Z,18.30
2022-10-25T14:46:25.761Z,18.30
2022-10-25T14:48:57.004Z,18.20
2022-10-25T14:51:28.012Z,18.10
2022-10-25T14:53:59.783Z,18.20
2022-10-25T14:56:31.431Z,18.10
2022-10-25T14:59:02.133Z,18.00
2022-10-25T15:01:30.610Z,17.90
2022-10-25T15:04:01.015Z,17.80
2022-10-25T15:06:32.044Z,17.70
2022-10-25T15:09:40.687Z,17.70
2022-10-25T15:12:07.945Z,17.60
2022-10-25T15:14:37.628Z,17.50
2022-10-25T15:17:07.160Z,17.40
2022-10-25T15:19:59.961Z,17.30
2022-10-25T15:22:33.489Z,17.30
2022-10-25T15:25:01.731Z,17.20
2022-10-25T15:27:35.305Z,17.20
2022-10-25T15:30:05.772Z,17.20
2022-10-25T15:32:34.849Z,17.10
2022-10-25T15:35:05.854Z,17.10
2022-10-25T15:37:34.068Z,16.90
2022-10-25T15:40:04.546Z,16.90
2022-10-25T15:42:33.729Z,16.80
2022-10-25T15:45:04.502Z,16.70
2022-10-25T15:47:37.352Z,16.50
2022-10-25T15:50:13.888Z,16.50
2022-10-25T15:52:42.194Z,16.30
2022-10-25T15:55:20.501Z,16.20
2022-10-25T15:57:48.886Z,16.20
2022-10-25T16:00:18.685Z,16.00
2022-10-25T16:02:48.927Z,16.00
2022-10-25T16:05:22.408Z,15.90
2022-10-25T16:07:51.212Z,15.80
2022-10-25T16:10:20.498Z,15.70
2022-10-25T16:12:57.039Z,15.60
2022-10-25T16:15:28.064Z,15.50
2022-10-25T16:17:57.718Z,15.40
2022-10-25T16:20:28.808Z,15.30
2022-10-25T16:22:57.820Z,15.20
2022-10-25T16:25:30.635Z,15.10
2022-10-25T16:28:02.047Z,14.90
2022-10-25T16:30:33.873Z,14.90
2022-10-25T16:33:03.412Z,14.70
2022-10-25T16:35:31.605Z,14.60
2022-10-25T16:38:00.017Z,14.50
2022-10-25T16:40:28.993Z,14.40
2022-10-25T16:42:58.294Z,14.30
2022-10-25T16:45:29.305Z,14.20
2022-10-25T16:47:58.302Z,14.10
2022-10-25T16:50:29.694Z,14.00
2022-10-25T16:52:59.920Z,14.00
2022-10-25T16:55:31.163Z,13.90
2022-10-25T16:57:59.954Z,13.80
2022-10-25T17:00:29.429Z,13.70
2022-10-25T17:02:57.574Z,13.70
2022-10-25T17:05:29.624Z,13.60
2022-10-25T17:07:57.996Z,13.50
2022-10-25T17:10:26.780Z,13.40
2022-10-25T17:13:01.372Z,13.30
2022-10-25T17:15:30.291Z,13.20
2022-10-25T17:17:58.971Z,13.30
2022-10-25T17:20:28.783Z,13.10
2022-10-25T17:22:57.227Z,13.10
2022-10-25T17:25:26.475Z,13.00
2022-10-25T17:27:55.235Z,12.90
2022-10-25T17:30:23.417Z,12.90
2022-10-25T17:32:51.677Z,12.90
2022-10-25T17:35:28.631Z,12.80
2022-10-25T17:37:59.327Z,12.70
2022-10-25T17:40:27.683Z,12.70
2022-10-25T17:42:55.847Z,12.60
2022-10-25T17:45:24.135Z,12.60
2022-10-25T17:47:52.335Z,12.50
2022-10-25T17:50:22.152Z,12.50
2022-10-25T17:52:52.099Z,12.40
2022-10-25T17:55:21.848Z,12.40
2022-10-25T17:57:51.040Z,12.40
2022-10-25T18:00:19.729Z,12.30
2022-10-25T18:02:50.719Z,12.30
2022-10-25T18:05:21.169Z,12.30
2022-10-25T18:07:50.427Z,12.20
2022-10-25T18:10:19.044Z,12.30
2022-10-25T18:12:49.169Z,12.30
2022-10-25T18:15:17.689Z,12.30
2022-10-25T18:17:47.405Z,12.20
2022-10-25T18:20:17.160Z,12.10
2022-10-25T18:22:45.963Z,12.20
2022-10-25T18:25:14.272Z,12.10
2022-10-25T18:27:42.455Z,12.10
2022-10-25T18:30:13.287Z,12.10
2022-10-25T18:32:41.574Z,12.10
2022-10-25T18:35:10.577Z,12.10
2022-10-25T18:37:38.968Z,12.00
2022-10-25T18:40:08.739Z,12.00
2022-10-25T18:42:38.187Z,12.00
2022-10-25T18:45:07.577Z,12.00
2022-10-25T18:47:37.193Z,11.90
2022-10-25T18:50:06.373Z,11.90
2022-10-25T18:52:34.751Z,11.90
2022-10-25T18:55:03.049Z,11.90
2022-10-25T18:57:31.646Z,11.90
2022-10-25T19:00:00.891Z,11.80
2022-10-25T19:02:31.115Z,11.80
2022-10-25T19:05:05.114Z,11.80
2022-10-25T19:07:33.411Z,11.80
2022-10-25T19:10:01.708Z,11.80
2022-10-25T19:12:29.919Z,11.70
2022-10-25T19:14:58.146Z,11.80
2022-10-25T19:17:26.437Z,11.80
2022-10-25T19:19:54.697Z,11.80
2022-10-25T19:22:24.383Z,11.80
2022-10-25T19:24:52.640Z,11.80
2022-10-25T19:27:21.100Z,11.80
2022-10-25T19:29:49.725Z,11.90
2022-10-25T19:32:17.950Z,11.90
2022-10-25T19:34:46.210Z,12.00
2022-10-25T19:37:14.505Z,12.00
2022-10-25T19:39:44.895Z,11.90
2022-10-25T19:42:13.208Z,11.90
2022-10-25T19:44:41.589Z,11.90
2022-10-25T19:47:10.119Z,11.90
2022-10-25T19:49:38.313Z,11.80
2022-10-25T19:52:06.603Z,11.80
2022-10-25T19:54:34.909Z,11.80
2022-10-25T19:57:06.212Z,11.80
2022-10-25T19:59:35.381Z,11.70
2022-10-25T20:02:03.990Z,11.70
2022-10-25T20:04:32.296Z,11.70
2022-10-25T20:07:00.479Z,11.60
2022-10-25T20:09:28.766Z,11.60
2022-10-25T20:11:57.343Z,11.60
2022-10-25T20:14:27.099Z,11.60
2022-10-25T20:16:55.409Z,11.50
2022-10-25T20:19:23.681Z,11.50
2022-10-25T20:21:51.953Z,11.50
2022-10-25T20:24:20.170Z,11.50
2022-10-25T20:26:49.760Z,11.50
2022-10-25T20:29:21.399Z,11.50
2022-10-25T20:31:52.496Z,11.50
2022-10-25T20:34:21.287Z,11.50
2022-10-25T20:36:50.177Z,11.50
2022-10-25T20:39:18.647Z,11.40
2022-10-25T20:41:46.968Z,11.50
2022-10-25T20:44:15.661Z,11.50
2022-10-25T20:46:43.925Z,11.50
2022-10-25T20:49:13.489Z,11.50
2022-10-25T20:51:42.800Z,11.50
2022-10-25T20:54:11.763Z,11.60
2022-10-25T20:56:40.130Z,11.60
2022-10-25T20:59:08.742Z,11.70
2022-10-25T21:01:38.028Z,11.70
2022-10-25T21:04:06.562Z,11.80
2022-10-25T21:06:36.141Z,11.90
2022-10-25T21:09:04.551Z,11.90
2022-10-25T21:11:32.804Z,12.00
2022-10-25T21:14:01.047Z,12.10
2022-10-25T21:16:29.344Z,12.10
2022-10-25T21:18:57.596Z,12.20
2022-10-25T21:21:25.908Z,12.30
2022-10-25T21:23:59.385Z,12.30
2022-10-25T21:26:27.727Z,12.40
2022-10-25T21:28:55.917Z,12.40
2022-10-25T21:31:24.228Z,12.50
2022-10-25T21:33:54.051Z,12.60
2022-10-25T21:36:25.345Z,12.70
2022-10-25T21:38:53.835Z,12.70
2022-10-25T21:41:27.145Z,12.70
2022-10-25T21:43:56.828Z,12.80
2022-10-25T21:46:26.375Z,12.90
2022-10-25T21:48:54.963Z,13.00
2022-10-25T21:51:25.159Z,13.10
2022-10-25T21:53:53.807Z,13.10
2022-10-25T21:56:30.536Z,13.20
2022-10-25T21:59:00.674Z,13.30
2022-10-25T22:01:30.579Z,13.30
2022-10-25T22:03:59.072Z,13.40
2022-10-25T22:06:28.091Z,13.50
2022-10-25T22:08:57.032Z,13.50
2022-10-25T22:11:27.834Z,13.50
2022-10-25T22:13:57.057Z,13.50
2022-10-25T22:16:26.153Z,13.60
2022-10-25T22:18:57.644Z,13.70
2022-10-25T22:21:27.514Z,13.70
2022-10-25T22:23:55.931Z,13.70
2022-10-25T22:26:26.408Z,13.70
2022-10-25T22:28:56.250Z,13.80
2022-10-25T22:31:25.433Z,13.80
2022-10-25T22:33:55.213Z,13.90
2022-10-25T22:36:25.775Z,13.90
2022-10-25T22:38:54.402Z,13.90
2022-10-25T22:41:24.122Z,13.90
2022-10-25T22:43:54.190Z,13.90
2022-10-25T22:46:25.448Z,13.80
2022-10-25T22:48:54.917Z,13.90
2022-10-25T22:51:24.147Z,13.90
2022-10-25T22:54:11.148Z,13.80
2022-10-25T22:56:39.425Z,13.90
2022-10-25T22:59:08.983Z,13.90
2022-10-25T23:01:38.598Z,13.90
2022-10-25T23:04:08.674Z,13.90
2022-10-25T23:06:39.010Z,13.80
2022-10-25T23:09:09.817Z,13.90
2022-10-25T23:11:39.999Z,13.90
2022-10-25T23:14:14.759Z,13.90
2022-10-25T23:16:45.901Z,13.80
2022-10-25T23:19:14.209Z,13.90
2022-10-25T23:21:42.395Z,13.90
2022-10-25T23:24:11.169Z,13.90
2022-10-25T23:26:39.702Z,13.90
2022-10-25T23:29:12.014Z,13.90
2022-10-25T23:31:40.343Z,13.90
2022-10-25T23:34:08.732Z,13.90
2022-10-25T23:36:38.221Z,13.90
2022-10-25T23:39:08.546Z,13.90
2022-10-25T23:41:36.875Z,13.90
2022-10-25T23:44:05.597Z,13.80
2022-10-25T23:46:35.174Z,13.90
2022-10-25T23:49:03.391Z,13.70
2022-10-25T23:51:32.697Z,13.80
2022-10-25T23:54:01.131Z,13.70
2022-10-25T23:56:29.338Z,13.70
2022-10-25T23:58:57.640Z,13.70
